sensor_id;sensor_type;location;lat;lon;timestamp;pressure;altitude;pressure_sealevel;temperature;humidity
24306;BME280;12423;48.768;8.850;2023-12-14T00:00:18;95956.09;;;4.94;100.00
24306;BME280;12423;48.768;8.850;2023-12-14T00:02:47;95956.56;;;4.88;100.00
24306;BME280;12423;48.768;8.850;2023-12-14T00:05:15;95946.69;;;5.02;100.00
24306;BME280;12423;48.768;8.850;2023-12-14T00:07:43;95943.91;;;5.03;100.00
24306;BME280;12423;48.768;8.850;2023-12-14T00:10:10;95951.56;;;4.85;100.00
24306;BME280;12423;48.768;8.850;2023-12-14T00:12:39;95959.84;;;4.80;100.00
24306;BME280;12423;48.768;8.850;2023-12-14T00:15:07;95964.25;;;4.91;100.00
24306;BME280;12423;48.768;8.850;2023-12-14T00:17:35;95959.97;;;4.79;100.00
24306;BME280;12423;48.768;8.850;2023-12-14T00:20:06;95963.31;;;4.92;100.00
24306;BME280;12423;48.768;8.850;2023-12-14T00:22:34;95971.59;;;4.88;100.00
24306;BME280;12423;48.768;8.850;2023-12-14T00:25:03;95965.69;;;5.07;100.00
24306;BME280;12423;48.768;8.850;2023-12-14T00:27:31;95965.28;;;5.11;100.00
24306;BME280;12423;48.768;8.850;2023-12-14T00:29:58;95970.75;;;5.10;100.00
24306;BME280;12423;48.768;8.850;2023-12-14T00:32:26;95979.97;;;5.15;100.00
24306;BME280;12423;48.768;8.850;2023-12-14T00:34:54;95980.13;;;5.03;100.00
24306;BME280;12423;48.768;8.850;2023-12-14T00:37:23;95984.81;;;4.99;100.00
24306;BME280;12423;48.768;8.850;2023-12-14T00:39:51;95998.16;;;5.09;100.00
24306;BME280;12423;48.768;8.850;2023-12-14T00:42:19;95995.53;;;5.09;100.00
24306;BME280;12423;48.768;8.850;2023-12-14T00:44:46;95995.91;;;4.93;100.00
24306;BME280;12423;48.768;8.850;2023-12-14T00:47:14;95994.59;;;4.98;100.00
24306;BME280;12423;48.768;8.850;2023-12-14T00:49:42;95993.63;;;4.88;100.00
24306;BME280;12423;48.768;8.850;2023-12-14T00:52:09;95996.38;;;4.98;100.00
24306;BME280;12423;48.768;8.850;2023-12-14T00:54:38;95993.97;;;4.95;100.00
24306;BME280;12423;48.768;8.850;2023-12-14T00:57:06;95997.69;;;5.04;100.00
24306;BME280;12423;48.768;8.850;2023-12-14T00:59:33;96003.72;;;4.94;100.00
24306;BME280;12423;48.768;8.850;2023-12-14T01:02:01;95998.91;;;4.88;100.00
24306;BME280;12423;48.768;8.850;2023-12-14T01:04:29;96003.72;;;4.72;100.00
24306;BME280;12423;48.768;8.850;2023-12-14T01:06:57;96017.59;;;4.75;100.00
24306;BME280;12423;48.768;8.850;2023-12-14T01:09:24;96018.66;;;4.61;100.00
24306;BME280;12423;48.768;8.850;2023-12-14T01:11:53;96021.06;;;4.76;100.00
24306;BME280;12423;48.768;8.850;2023-12-14T01:14:21;96024.41;;;4.78;100.00
24306;BME280;12423;48.768;8.850;2023-12-14T01:16:49;96035.00;;;4.78;100.00
24306;BME280;12423;48.768;8.850;2023-12-14T01:19:16;96039.69;;;4.74;100.00
24306;BME280;12423;48.768;8.850;2023-12-14T01:21:44;96047.03;;;4.82;100.00
24306;BME280;12423;48.768;8.850;2023-12-14T01:24:12;96048.47;;;4.86;100.00
24306;BME280;12423;48.768;8.850;2023-12-14T01:26:40;96059.91;;;4.87;100.00
24306;BME280;12423;48.768;8.850;2023-12-14T01:29:09;96060.50;;;4.90;100.00
24306;BME280;12423;48.768;8.850;2023-12-14T01:31:37;96076.16;;;4.93;100.00
24306;BME280;12423;48.768;8.850;2023-12-14T01:34:05;96075.16;;;4.83;100.00
24306;BME280;12423;48.768;8.850;2023-12-14T01:36:33;96080.72;;;4.69;100.00
24306;BME280;12423;48.768;8.850;2023-12-14T01:39:01;96078.81;;;4.82;100.00
24306;BME280;12423;48.768;8.850;2023-12-14T01:41:28;96078.66;;;4.95;100.00
24306;BME280;12423;48.768;8.850;2023-12-14T01:43:56;96079.41;;;4.86;100.00
24306;BME280;12423;48.768;8.850;2023-12-14T01:46:25;96089.38;;;4.93;100.00
24306;BME280;12423;48.768;8.850;2023-12-14T01:48:53;96088.28;;;4.96;100.00
24306;BME280;12423;48.768;8.850;2023-12-14T01:51:20;96089.88;;;4.98;100.00
24306;BME280;12423;48.768;8.850;2023-12-14T01:53:48;96096.59;;;5.03;100.00
24306;BME280;12423;48.768;8.850;2023-12-14T01:56:16;96093.22;;;5.01;100.00
24306;BME280;12423;48.768;8.850;2023-12-14T01:58:43;96100.22;;;5.02;100.00
24306;BME280;12423;48.768;8.850;2023-12-14T02:01:17;96106.69;;;4.86;100.00
24306;BME280;12423;48.768;8.850;2023-12-14T02:03:49;96113.19;;;4.93;100.00
24306;BME280;12423;48.768;8.850;2023-12-14T02:06:17;96112.69;;;4.99;100.00
24306;BME280;12423;48.768;8.850;2023-12-14T02:08:45;96117.50;;;4.83;100.00
24306;BME280;12423;48.768;8.850;2023-12-14T02:11:12;96113.91;;;4.73;100.00
24306;BME280;12423;48.768;8.850;2023-12-14T02:13:40;96116.31;;;4.87;100.00
24306;BME280;12423;48.768;8.850;2023-12-14T02:16:08;96122.81;;;5.06;100.00
24306;BME280;12423;48.768;8.850;2023-12-14T02:18:36;96123.53;;;4.85;100.00
24306;BME280;12423;48.768;8.850;2023-12-14T02:21:06;96124.28;;;4.98;100.00
24306;BME280;12423;48.768;8.850;2023-12-14T02:23:35;96123.28;;;4.88;100.00
24306;BME280;12423;48.768;8.850;2023-12-14T02:26:02;96117.75;;;4.80;100.00
24306;BME280;12423;48.768;8.850;2023-12-14T02:28:30;96125.31;;;4.85;100.00
24306;BME280;12423;48.768;8.850;2023-12-14T02:30:58;96123.78;;;4.82;100.00
24306;BME280;12423;48.768;8.850;2023-12-14T02:33:25;96131.72;;;4.82;100.00
24306;BME280;12423;48.768;8.850;2023-12-14T02:35:53;96136.78;;;4.85;100.00
24306;BME280;12423;48.768;8.850;2023-12-14T02:38:21;96130.28;;;4.89;100.00
24306;BME280;12423;48.768;8.850;2023-12-14T02:40:50;96142.06;;;4.74;100.00
24306;BME280;12423;48.768;8.850;2023-12-14T02:43:19;96135.91;;;4.73;100.00
24306;BME280;12423;48.768;8.850;2023-12-14T02:45:47;96139.66;;;4.82;100.00
24306;BME280;12423;48.768;8.850;2023-12-14T02:48:14;96146.38;;;4.86;100.00
24306;BME280;12423;48.768;8.850;2023-12-14T02:50:42;96144.22;;;4.91;100.00
24306;BME280;12423;48.768;8.850;2023-12-14T02:53:10;96146.16;;;5.01;100.00
24306;BME280;12423;48.768;8.850;2023-12-14T02:55:38;96150.47;;;4.79;100.00
24306;BME280;12423;48.768;8.850;2023-12-14T02:58:07;96148.44;;;4.83;100.00
24306;BME280;12423;48.768;8.850;2023-12-14T03:00:34;96148.09;;;4.98;100.00
24306;BME280;12423;48.768;8.850;2023-12-14T03:03:02;96161.56;;;5.07;100.00
24306;BME280;12423;48.768;8.850;2023-12-14T03:05:30;96161.69;;;4.94;100.00
24306;BME280;12423;48.768;8.850;2023-12-14T03:07:58;96167.09;;;5.04;100.00
24306;BME280;12423;48.768;8.850;2023-12-14T03:10:25;96172.75;;;5.10;100.00
24306;BME280;12423;48.768;8.850;2023-12-14T03:12:53;96174.44;;;5.11;100.00
24306;BME280;12423;48.768;8.850;2023-12-14T03:15:22;96179.13;;;5.08;100.00
24306;BME280;12423;48.768;8.850;2023-12-14T03:17:50;96183.59;;;5.07;100.00
24306;BME280;12423;48.768;8.850;2023-12-14T03:20:18;96183.22;;;5.12;100.00
24306;BME280;12423;48.768;8.850;2023-12-14T03:22:45;96193.84;;;5.23;100.00
24306;BME280;12423;48.768;8.850;2023-12-14T03:25:13;96193.31;;;4.95;100.00
24306;BME280;12423;48.768;8.850;2023-12-14T03:27:41;96189.22;;;5.03;100.00
24306;BME280;12423;48.768;8.850;2023-12-14T03:30:09;96182.97;;;4.92;100.00
24306;BME280;12423;48.768;8.850;2023-12-14T03:32:39;96194.41;;;5.04;100.00
24306;BME280;12423;48.768;8.850;2023-12-14T03:35:07;96201.63;;;5.02;100.00
24306;BME280;12423;48.768;8.850;2023-12-14T03:37:35;96206.47;;;5.08;100.00
24306;BME280;12423;48.768;8.850;2023-12-14T03:40:04;96209.00;;;5.10;100.00
24306;BME280;12423;48.768;8.850;2023-12-14T03:42:32;96213.06;;;5.03;100.00
24306;BME280;12423;48.768;8.850;2023-12-14T03:45:00;96211.63;;;5.10;100.00
24306;BME280;12423;48.768;8.850;2023-12-14T03:47:27;96215.94;;;5.11;100.00
24306;BME280;12423;48.768;8.850;2023-12-14T03:49:56;96219.81;;;5.18;100.00
24306;BME280;12423;48.768;8.850;2023-12-14T03:52:24;96222.22;;;5.10;100.00
24306;BME280;12423;48.768;8.850;2023-12-14T03:54:52;96234.72;;;5.08;100.00
24306;BME280;12423;48.768;8.850;2023-12-14T03:57:19;96234.00;;;5.06;100.00
24306;BME280;12423;48.768;8.850;2023-12-14T03:59:47;96242.19;;;5.14;100.00
24306;BME280;12423;48.768;8.850;2023-12-14T04:02:15;96246.56;;;5.26;100.00
24306;BME280;12423;48.768;8.850;2023-12-14T04:04:42;96252.09;;;5.23;100.00
24306;BME280;12423;48.768;8.850;2023-12-14T04:07:13;96260.28;;;5.31;100.00
24306;BME280;12423;48.768;8.850;2023-12-14T04:09:40;96262.19;;;5.29;100.00
24306;BME280;12423;48.768;8.850;2023-12-14T04:12:08;96264.84;;;5.18;100.00
24306;BME280;12423;48.768;8.850;2023-12-14T04:14:36;96268.22;;;5.20;100.00
24306;BME280;12423;48.768;8.850;2023-12-14T04:17:03;96274.22;;;5.22;100.00
24306;BME280;12423;48.768;8.850;2023-12-14T04:19:31;96279.28;;;5.25;100.00
24306;BME280;12423;48.768;8.850;2023-12-14T04:21:59;96270.63;;;5.23;100.00
24306;BME280;12423;48.768;8.850;2023-12-14T04:24:28;96279.28;;;5.25;100.00
24306;BME280;12423;48.768;8.850;2023-12-14T04:26:56;96277.47;;;5.26;100.00
24306;BME280;12423;48.768;8.850;2023-12-14T04:29:24;96287.22;;;5.25;100.00
24306;BME280;12423;48.768;8.850;2023-12-14T04:31:51;96287.94;;;5.27;100.00
24306;BME280;12423;48.768;8.850;2023-12-14T04:34:19;96286.75;;;5.31;100.00
24306;BME280;12423;48.768;8.850;2023-12-14T04:36:47;96295.44;;;5.33;100.00
24306;BME280;12423;48.768;8.850;2023-12-14T04:39:15;96300.13;;;5.30;100.00
24306;BME280;12423;48.768;8.850;2023-12-14T04:41:45;96310.13;;;5.26;100.00
24306;BME280;12423;48.768;8.850;2023-12-14T04:44:13;96312.63;;;5.28;100.00
24306;BME280;12423;48.768;8.850;2023-12-14T04:46:40;96313.72;;;5.25;100.00
24306;BME280;12423;48.768;8.850;2023-12-14T04:49:08;96316.69;;;5.21;100.00
24306;BME280;12423;48.768;8.850;2023-12-14T04:51:36;96327.78;;;5.26;100.00
24306;BME280;12423;48.768;8.850;2023-12-14T04:54:04;96320.28;;;5.20;100.00
24306;BME280;12423;48.768;8.850;2023-12-14T04:56:32;96324.53;;;5.22;100.00
24306;BME280;12423;48.768;8.850;2023-12-14T04:59:01;96321.88;;;5.22;100.00
24306;BME280;12423;48.768;8.850;2023-12-14T05:01:29;96336.44;;;5.16;100.00
24306;BME280;12423;48.768;8.850;2023-12-14T05:04:00;96333.41;;;5.21;100.00
24306;BME280;12423;48.768;8.850;2023-12-14T05:06:27;96332.69;;;5.19;100.00
24306;BME280;12423;48.768;8.850;2023-12-14T05:08:55;96343.28;;;5.19;100.00
24306;BME280;12423;48.768;8.850;2023-12-14T05:11:24;96346.53;;;5.23;100.00
24306;BME280;12423;48.768;8.850;2023-12-14T05:13:52;96351.38;;;5.29;100.00
24306;BME280;12423;48.768;8.850;2023-12-14T05:16:21;96356.53;;;5.19;100.00
24306;BME280;12423;48.768;8.850;2023-12-14T05:18:48;96354.34;;;5.13;100.00
24306;BME280;12423;48.768;8.850;2023-12-14T05:21:16;96361.09;;;5.17;100.00
24306;BME280;12423;48.768;8.850;2023-12-14T05:23:44;96363.53;;;5.20;100.00
24306;BME280;12423;48.768;8.850;2023-12-14T05:26:12;96373.13;;;5.21;100.00
24306;BME280;12423;48.768;8.850;2023-12-14T05:28:40;96377.25;;;5.25;100.00
24306;BME280;12423;48.768;8.850;2023-12-14T05:31:08;96382.56;;;5.25;100.00
24306;BME280;12423;48.768;8.850;2023-12-14T05:33:37;96388.06;;;5.22;100.00
24306;BME280;12423;48.768;8.850;2023-12-14T05:36:06;96393.38;;;5.22;100.00
24306;BME280;12423;48.768;8.850;2023-12-14T05:38:38;96400.16;;;5.26;100.00
24306;BME280;12423;48.768;8.850;2023-12-14T05:41:06;96400.97;;;5.27;100.00
24306;BME280;12423;48.768;8.850;2023-12-14T05:43:34;96407.13;;;5.27;100.00
24306;BME280;12423;48.768;8.850;2023-12-14T05:46:03;96410.38;;;5.31;100.00
24306;BME280;12423;48.768;8.850;2023-12-14T05:48:31;96406.16;;;5.28;100.00
24306;BME280;12423;48.768;8.850;2023-12-14T05:51:00;96423.97;;;5.26;100.00
24306;BME280;12423;48.768;8.850;2023-12-14T05:53:28;96419.28;;;5.30;100.00
24306;BME280;12423;48.768;8.850;2023-12-14T05:55:56;96423.38;;;5.34;100.00
24306;BME280;12423;48.768;8.850;2023-12-14T05:58:23;96434.03;;;5.21;100.00
24306;BME280;12423;48.768;8.850;2023-12-14T06:00:51;96440.97;;;5.35;100.00
24306;BME280;12423;48.768;8.850;2023-12-14T06:03:19;96439.88;;;5.38;100.00
24306;BME280;12423;48.768;8.850;2023-12-14T06:05:47;96439.63;;;5.29;100.00
24306;BME280;12423;48.768;8.850;2023-12-14T06:08:16;96451.41;;;5.25;100.00
24306;BME280;12423;48.768;8.850;2023-12-14T06:10:44;96453.56;;;5.20;100.00
24306;BME280;12423;48.768;8.850;2023-12-14T06:13:12;96453.09;;;5.26;100.00
24306;BME280;12423;48.768;8.850;2023-12-14T06:15:39;96465.44;;;5.39;100.00
24306;BME280;12423;48.768;8.850;2023-12-14T06:18:07;96457.59;;;5.37;100.00
24306;BME280;12423;48.768;8.850;2023-12-14T06:20:35;96466.88;;;5.43;100.00
24306;BME280;12423;48.768;8.850;2023-12-14T06:23:02;96472.94;;;5.45;100.00
24306;BME280;12423;48.768;8.850;2023-12-14T06:25:32;96471.91;;;5.34;100.00
24306;BME280;12423;48.768;8.850;2023-12-14T06:27:59;96475.53;;;5.33;100.00
24306;BME280;12423;48.768;8.850;2023-12-14T06:30:27;96484.34;;;5.45;100.00
24306;BME280;12423;48.768;8.850;2023-12-14T06:32:55;96483.25;;;5.37;100.00
24306;BME280;12423;48.768;8.850;2023-12-14T06:35:22;96484.06;;;5.37;100.00
24306;BME280;12423;48.768;8.850;2023-12-14T06:37:50;96493.09;;;5.34;100.00
24306;BME280;12423;48.768;8.850;2023-12-14T06:40:18;96490.97;;;5.40;100.00
24306;BME280;12423;48.768;8.850;2023-12-14T06:42:47;96502.41;;;5.40;100.00
24306;BME280;12423;48.768;8.850;2023-12-14T06:45:16;96510.69;;;5.35;100.00
24306;BME280;12423;48.768;8.850;2023-12-14T06:47:44;96515.53;;;5.42;100.00
24306;BME280;12423;48.768;8.850;2023-12-14T06:50:13;96516.38;;;5.42;100.00
24306;BME280;12423;48.768;8.850;2023-12-14T06:52:40;96523.69;;;5.39;100.00
24306;BME280;12423;48.768;8.850;2023-12-14T06:55:08;96523.97;;;5.47;100.00
24306;BME280;12423;48.768;8.850;2023-12-14T06:57:37;96532.97;;;5.44;100.00
24306;BME280;12423;48.768;8.850;2023-12-14T07:00:07;96542.53;;;5.47;100.00
24306;BME280;12423;48.768;8.850;2023-12-14T07:02:36;96538.16;;;5.46;100.00
24306;BME280;12423;48.768;8.850;2023-12-14T07:05:04;96547.94;;;5.45;100.00
24306;BME280;12423;48.768;8.850;2023-12-14T07:07:32;96552.69;;;5.53;100.00
24306;BME280;12423;48.768;8.850;2023-12-14T07:10:00;96558.81;;;5.53;100.00
24306;BME280;12423;48.768;8.850;2023-12-14T07:12:28;96558.31;;;5.48;100.00
24306;BME280;12423;48.768;8.850;2023-12-14T07:14:55;96573.88;;;5.53;100.00
24306;BME280;12423;48.768;8.850;2023-12-14T07:17:24;96564.94;;;5.54;100.00
24306;BME280;12423;48.768;8.850;2023-12-14T07:19:52;96576.34;;;5.43;100.00
24306;BME280;12423;48.768;8.850;2023-12-14T07:22:22;96586.84;;;5.45;100.00
24306;BME280;12423;48.768;8.850;2023-12-14T07:24:50;96588.19;;;5.50;100.00
24306;BME280;12423;48.768;8.850;2023-12-14T07:27:25;96592.41;;;5.53;100.00
24306;BME280;12423;48.768;8.850;2023-12-14T07:29:53;96595.13;;;5.64;100.00
24306;BME280;12423;48.768;8.850;2023-12-14T07:32:20;96601.09;;;5.55;100.00
24306;BME280;12423;48.768;8.850;2023-12-14T07:34:50;96606.50;;;5.53;100.00
24306;BME280;12423;48.768;8.850;2023-12-14T07:37:18;96614.56;;;5.52;100.00
24306;BME280;12423;48.768;8.850;2023-12-14T07:39:46;96606.28;;;5.57;100.00
24306;BME280;12423;48.768;8.850;2023-12-14T07:42:13;96613.09;;;5.48;100.00
24306;BME280;12423;48.768;8.850;2023-12-14T07:44:46;96624.94;;;5.55;100.00
24306;BME280;12423;48.768;8.850;2023-12-14T07:47:13;96618.81;;;5.54;100.00
24306;BME280;12423;48.768;8.850;2023-12-14T07:49:41;96622.91;;;5.59;100.00
24306;BME280;12423;48.768;8.850;2023-12-14T07:52:10;96616.69;;;5.47;100.00
24306;BME280;12423;48.768;8.850;2023-12-14T07:54:40;96624.84;;;5.57;100.00
24306;BME280;12423;48.768;8.850;2023-12-14T07:57:08;96629.97;;;5.71;100.00
24306;BME280;12423;48.768;8.850;2023-12-14T07:59:35;96631.03;;;5.68;100.00
24306;BME280;12423;48.768;8.850;2023-12-14T08:02:03;96640.75;;;5.81;100.00
24306;BME280;12423;48.768;8.850;2023-12-14T08:04:31;96644.47;;;5.78;100.00
24306;BME280;12423;48.768;8.850;2023-12-14T08:07:00;96652.31;;;5.80;100.00
24306;BME280;12423;48.768;8.850;2023-12-14T08:09:29;96662.47;;;5.86;100.00
24306;BME280;12423;48.768;8.850;2023-12-14T08:11:57;96660.53;;;5.88;100.00
24306;BME280;12423;48.768;8.850;2023-12-14T08:14:24;96663.69;;;5.93;100.00
24306;BME280;12423;48.768;8.850;2023-12-14T08:16:52;96665.75;;;5.89;100.00
24306;BME280;12423;48.768;8.850;2023-12-14T08:19:20;96674.72;;;6.00;100.00
24306;BME280;12423;48.768;8.850;2023-12-14T08:21:47;96686.19;;;6.00;100.00
24306;BME280;12423;48.768;8.850;2023-12-14T08:24:15;96690.31;;;6.04;100.00
24306;BME280;12423;48.768;8.850;2023-12-14T08:26:44;96685.72;;;6.06;100.00
24306;BME280;12423;48.768;8.850;2023-12-14T08:29:12;96696.75;;;6.13;100.00
24306;BME280;12423;48.768;8.850;2023-12-14T08:31:39;96701.25;;;6.24;100.00
24306;BME280;12423;48.768;8.850;2023-12-14T08:34:07;96707.06;;;6.29;100.00
24306;BME280;12423;48.768;8.850;2023-12-14T08:36:35;96716.19;;;6.25;100.00
24306;BME280;12423;48.768;8.850;2023-12-14T08:39:03;96722.13;;;6.28;100.00
24306;BME280;12423;48.768;8.850;2023-12-14T08:41:30;96731.28;;;6.24;100.00
24306;BME280;12423;48.768;8.850;2023-12-14T08:43:59;96735.28;;;6.30;100.00
24306;BME280;12423;48.768;8.850;2023-12-14T08:46:27;96739.50;;;6.33;100.00
24306;BME280;12423;48.768;8.850;2023-12-14T08:48:55;96737.38;;;6.38;100.00
24306;BME280;12423;48.768;8.850;2023-12-14T08:51:22;96745.59;;;6.46;100.00
24306;BME280;12423;48.768;8.850;2023-12-14T08:53:52;96751.03;;;6.44;100.00
24306;BME280;12423;48.768;8.850;2023-12-14T08:56:20;96752.94;;;6.42;100.00
24306;BME280;12423;48.768;8.850;2023-12-14T08:58:48;96759.22;;;6.41;100.00
24306;BME280;12423;48.768;8.850;2023-12-14T09:01:20;96765.41;;;6.53;100.00
24306;BME280;12423;48.768;8.850;2023-12-14T09:03:48;96770.59;;;6.55;100.00
24306;BME280;12423;48.768;8.850;2023-12-14T09:06:17;96782.47;;;6.62;100.00
24306;BME280;12423;48.768;8.850;2023-12-14T09:08:45;96784.25;;;6.61;100.00
24306;BME280;12423;48.768;8.850;2023-12-14T09:11:12;96788.41;;;6.66;100.00
24306;BME280;12423;48.768;8.850;2023-12-14T09:13:41;96792.34;;;6.60;100.00
24306;BME280;12423;48.768;8.850;2023-12-14T09:16:09;96787.31;;;6.68;100.00
24306;BME280;12423;48.768;8.850;2023-12-14T09:18:38;96789.97;;;6.68;100.00
24306;BME280;12423;48.768;8.850;2023-12-14T09:21:06;96797.53;;;6.86;100.00
24306;BME280;12423;48.768;8.850;2023-12-14T09:23:34;96805.88;;;6.92;100.00
24306;BME280;12423;48.768;8.850;2023-12-14T09:26:01;96810.84;;;6.97;100.00
24306;BME280;12423;48.768;8.850;2023-12-14T09:28:29;96811.56;;;6.99;100.00
24306;BME280;12423;48.768;8.850;2023-12-14T09:30:57;96810.16;;;7.06;100.00
24306;BME280;12423;48.768;8.850;2023-12-14T09:33:24;96821.53;;;7.08;100.00
24306;BME280;12423;48.768;8.850;2023-12-14T09:35:54;96813.31;;;7.11;100.00
24306;BME280;12423;48.768;8.850;2023-12-14T09:38:21;96825.88;;;7.20;100.00
24306;BME280;12423;48.768;8.850;2023-12-14T09:40:49;96824.81;;;7.23;100.00
24306;BME280;12423;48.768;8.850;2023-12-14T09:43:17;96830.84;;;7.25;100.00
24306;BME280;12423;48.768;8.850;2023-12-14T09:45:45;96835.00;;;7.29;100.00
24306;BME280;12423;48.768;8.850;2023-12-14T09:48:15;96832.19;;;7.31;100.00
24306;BME280;12423;48.768;8.850;2023-12-14T09:50:44;96828.81;;;7.29;100.00
24306;BME280;12423;48.768;8.850;2023-12-14T09:53:14;96837.53;;;7.42;100.00
24306;BME280;12423;48.768;8.850;2023-12-14T09:55:42;96842.13;;;7.40;100.00
24306;BME280;12423;48.768;8.850;2023-12-14T09:58:10;96848.28;;;7.41;100.00
24306;BME280;12423;48.768;8.850;2023-12-14T10:00:40;96843.84;;;7.41;100.00
24306;BME280;12423;48.768;8.850;2023-12-14T10:03:18;96848.28;;;7.41;100.00
24306;BME280;12423;48.768;8.850;2023-12-14T10:05:47;96853.00;;;7.48;100.00
24306;BME280;12423;48.768;8.850;2023-12-14T10:08:17;96851.34;;;7.59;100.00
24306;BME280;12423;48.768;8.850;2023-12-14T10:10:47;96852.56;;;7.54;100.00
24306;BME280;12423;48.768;8.850;2023-12-14T10:13:17;96857.53;;;7.59;100.00
24306;BME280;12423;48.768;8.850;2023-12-14T10:15:47;96869.38;;;7.66;100.00
24306;BME280;12423;48.768;8.850;2023-12-14T10:18:21;96862.56;;;7.62;100.00
24306;BME280;12423;48.768;8.850;2023-12-14T10:20:50;96871.31;;;7.75;100.00
24306;BME280;12423;48.768;8.850;2023-12-14T10:23:19;96879.91;;;7.79;100.00
24306;BME280;12423;48.768;8.850;2023-12-14T10:25:48;96880.38;;;7.73;100.00
24306;BME280;12423;48.768;8.850;2023-12-14T10:28:16;96876.75;;;7.74;100.00
24306;BME280;12423;48.768;8.850;2023-12-14T10:30:44;96879.03;;;7.67;100.00
24306;BME280;12423;48.768;8.850;2023-12-14T10:33:12;96891.44;;;7.55;100.00
24306;BME280;12423;48.768;8.850;2023-12-14T10:35:41;96887.72;;;7.58;100.00
24306;BME280;12423;48.768;8.850;2023-12-14T10:38:11;96896.03;;;7.53;100.00
24306;BME280;12423;48.768;8.850;2023-12-14T10:40:41;96895.09;;;7.54;100.00
24306;BME280;12423;48.768;8.850;2023-12-14T10:43:11;96892.66;;;7.51;100.00
24306;BME280;12423;48.768;8.850;2023-12-14T10:45:43;96893.13;;;7.45;100.00
24306;BME280;12423;48.768;8.850;2023-12-14T10:48:14;96887.94;;;7.55;100.00
24306;BME280;12423;48.768;8.850;2023-12-14T10:50:42;96893.16;;;7.56;100.00
24306;BME280;12423;48.768;8.850;2023-12-14T10:53:10;96895.34;;;7.63;100.00
24306;BME280;12423;48.768;8.850;2023-12-14T10:55:43;96902.25;;;7.77;100.00
24306;BME280;12423;48.768;8.850;2023-12-14T10:58:11;96897.31;;;7.83;100.00
24306;BME280;12423;48.768;8.850;2023-12-14T11:00:39;96911.34;;;7.85;100.00
24306;BME280;12423;48.768;8.850;2023-12-14T11:03:13;96917.03;;;7.92;100.00
24306;BME280;12423;48.768;8.850;2023-12-14T11:05:40;96918.03;;;8.02;100.00
24306;BME280;12423;48.768;8.850;2023-12-14T11:08:08;96921.38;;;7.93;100.00
24306;BME280;12423;48.768;8.850;2023-12-14T11:10:39;96920.53;;;7.81;100.00
24306;BME280;12423;48.768;8.850;2023-12-14T11:13:10;96922.78;;;7.63;100.00
24306;BME280;12423;48.768;8.850;2023-12-14T11:15:40;96926.56;;;7.36;100.00
24306;BME280;12423;48.768;8.850;2023-12-14T11:18:23;96932.44;;;7.29;100.00
24306;BME280;12423;48.768;8.850;2023-12-14T11:20:58;96932.25;;;7.43;100.00
24306;BME280;12423;48.768;8.850;2023-12-14T11:23:32;96924.16;;;7.45;100.00
24306;BME280;12423;48.768;8.850;2023-12-14T11:26:02;96929.31;;;7.35;100.00
24306;BME280;12423;48.768;8.850;2023-12-14T11:28:36;96931.81;;;7.49;100.00
24306;BME280;12423;48.768;8.850;2023-12-14T11:31:05;96943.66;;;7.56;100.00
24306;BME280;12423;48.768;8.850;2023-12-14T11:33:35;96951.44;;;7.71;100.00
24306;BME280;12423;48.768;8.850;2023-12-14T11:36:11;96962.59;;;7.87;100.00
24306;BME280;12423;48.768;8.850;2023-12-14T11:38:39;96946.75;;;7.86;100.00
24306;BME280;12423;48.768;8.850;2023-12-14T11:41:07;96952.94;;;7.98;100.00
24306;BME280;12423;48.768;8.850;2023-12-14T11:43:42;96951.09;;;7.87;100.00
24306;BME280;12423;48.768;8.850;2023-12-14T11:46:11;96958.72;;;7.91;100.00
24306;BME280;12423;48.768;8.850;2023-12-14T11:48:40;96956.78;;;7.93;100.00
24306;BME280;12423;48.768;8.850;2023-12-14T11:51:08;96949.56;;;7.96;100.00
24306;BME280;12423;48.768;8.850;2023-12-14T11:53:36;96953.19;;;7.94;100.00
24306;BME280;12423;48.768;8.850;2023-12-14T11:56:06;96951.28;;;8.08;100.00
24306;BME280;12423;48.768;8.850;2023-12-14T11:58:34;96953.22;;;8.17;100.00
24306;BME280;12423;48.768;8.850;2023-12-14T12:01:14;96954.69;;;8.33;100.00
24306;BME280;12423;48.768;8.850;2023-12-14T12:03:43;96950.19;;;8.33;100.00
24306;BME280;12423;48.768;8.850;2023-12-14T12:06:19;96951.06;;;8.22;100.00
24306;BME280;12423;48.768;8.850;2023-12-14T12:08:48;96948.38;;;8.11;100.00
24306;BME280;12423;48.768;8.850;2023-12-14T12:11:16;96965.69;;;8.28;100.00
24306;BME280;12423;48.768;8.850;2023-12-14T12:13:50;96967.47;;;8.16;100.00
24306;BME280;12423;48.768;8.850;2023-12-14T12:16:19;96968.94;;;8.09;100.00
24306;BME280;12423;48.768;8.850;2023-12-14T12:18:46;96968.00;;;8.33;100.00
24306;BME280;12423;48.768;8.850;2023-12-14T12:21:14;96965.25;;;8.45;100.00
24306;BME280;12423;48.768;8.850;2023-12-14T12:23:42;96977.25;;;9.61;100.00
24306;BME280;12423;48.768;8.850;2023-12-14T12:26:10;96973.69;;;9.39;100.00
24306;BME280;12423;48.768;8.850;2023-12-14T12:28:37;96973.53;;;9.09;100.00
24306;BME280;12423;48.768;8.850;2023-12-14T12:31:05;96972.97;;;8.37;100.00
24306;BME280;12423;48.768;8.850;2023-12-14T12:33:34;96977.44;;;8.25;100.00
24306;BME280;12423;48.768;8.850;2023-12-14T12:36:06;96984.78;;;8.10;100.00
24306;BME280;12423;48.768;8.850;2023-12-14T12:38:34;96982.44;;;7.94;100.00
24306;BME280;12423;48.768;8.850;2023-12-14T12:41:06;96980.25;;;7.77;100.00
24306;BME280;12423;48.768;8.850;2023-12-14T12:43:34;96996.97;;;7.66;100.00
24306;BME280;12423;48.768;8.850;2023-12-14T12:46:01;96992.72;;;7.64;100.00
24306;BME280;12423;48.768;8.850;2023-12-14T12:48:29;96994.13;;;7.81;100.00
24306;BME280;12423;48.768;8.850;2023-12-14T12:50:59;96996.69;;;7.82;100.00
24306;BME280;12423;48.768;8.850;2023-12-14T12:53:26;96994.03;;;7.93;100.00
24306;BME280;12423;48.768;8.850;2023-12-14T12:55:54;97001.03;;;7.83;100.00
24306;BME280;12423;48.768;8.850;2023-12-14T12:58:21;96998.84;;;7.77;100.00
24306;BME280;12423;48.768;8.850;2023-12-14T13:00:49;96997.88;;;7.78;100.00
24306;BME280;12423;48.768;8.850;2023-12-14T13:03:17;97001.84;;;7.72;100.00
24306;BME280;12423;48.768;8.850;2023-12-14T13:05:45;96999.81;;;7.52;100.00